sensor_id;sensor_type;location;lat;lon;timestamp;temperature;humidity
18597;DHT22;9428;50.950;6.912;2024-01-15T00:00:28;1.90;99.90
18597;DHT22;9428;50.950;6.912;2024-01-15T00:03:17;1.90;99.90
18597;DHT22;9428;50.950;6.912;2024-01-15T00:06:05;1.90;99.90
18597;DHT22;9428;50.950;6.912;2024-01-15T00:08:52;1.80;99.90
18597;DHT22;9428;50.950;6.912;2024-01-15T00:11:39;1.80;99.90
18597;DHT22;9428;50.950;6.912;2024-01-15T00:14:27;1.80;99.90
18597;DHT22;9428;50.950;6.912;2024-01-15T00:17:15;1.80;99.90
18597;DHT22;9428;50.950;6.912;2024-01-15T00:20:05;1.80;99.90
18597;DHT22;9428;50.950;6.912;2024-01-15T00:22:52;1.70;99.90
18597;DHT22;9428;50.950;6.912;2024-01-15T00:25:41;1.80;99.90
18597;DHT22;9428;50.950;6.912;2024-01-15T00:28:28;1.60;99.90
18597;DHT22;9428;50.950;6.912;2024-01-15T00:31:16;1.60;99.90
18597;DHT22;9428;50.950;6.912;2024-01-15T00:34:04;1.50;99.90
18597;DHT22;9428;50.950;6.912;2024-01-15T00:36:52;1.60;99.90
18597;DHT22;9428;50.950;6.912;2024-01-15T00:39:40;1.60;99.90
18597;DHT22;9428;50.950;6.912;2024-01-15T00:42:28;1.50;99.90
18597;DHT22;9428;50.950;6.912;2024-01-15T00:45:15;1.50;99.90
18597;DHT22;9428;50.950;6.912;2024-01-15T00:48:05;1.50;99.90
18597;DHT22;9428;50.950;6.912;2024-01-15T00:50:52;1.50;99.90
18597;DHT22;9428;50.950;6.912;2024-01-15T00:53:42;1.50;99.90
18597;DHT22;9428;50.950;6.912;2024-01-15T00:56:29;1.50;99.90
18597;DHT22;9428;50.950;6.912;2024-01-15T00:59:17;1.50;99.90
18597;DHT22;9428;50.950;6.912;2024-01-15T01:02:06;1.50;99.90
18597;DHT22;9428;50.950;6.912;2024-01-15T01:04:53;1.60;99.90
18597;DHT22;9428;50.950;6.912;2024-01-15T01:07:41;1.60;99.90
18597;DHT22;9428;50.950;6.912;2024-01-15T01:10:29;1.60;99.90
18597;DHT22;9428;50.950;6.912;2024-01-15T01:13:17;1.90;99.90
18597;DHT22;9428;50.950;6.912;2024-01-15T01:16:04;1.60;99.90
18597;DHT22;9428;50.950;6.912;2024-01-15T01:18:52;1.60;99.90
18597;DHT22;9428;50.950;6.912;2024-01-15T01:21:39;1.60;99.90
18597;DHT22;9428;50.950;6.912;2024-01-15T01:24:26;1.60;99.90
18597;DHT22;9428;50.950;6.912;2024-01-15T01:27:15;1.60;99.90
18597;DHT22;9428;50.950;6.912;2024-01-15T01:30:04;1.60;99.90
18597;DHT22;9428;50.950;6.912;2024-01-15T01:32:51;1.70;99.90
18597;DHT22;9428;50.950;6.912;2024-01-15T01:35:41;1.70;99.90
18597;DHT22;9428;50.950;6.912;2024-01-15T01:38:29;1.70;99.90
18597;DHT22;9428;50.950;6.912;2024-01-15T01:41:16;1.70;99.90
18597;DHT22;9428;50.950;6.912;2024-01-15T01:44:05;1.70;99.90
18597;DHT22;9428;50.950;6.912;2024-01-15T01:46:53;1.60;99.90
18597;DHT22;9428;50.950;6.912;2024-01-15T01:49:40;1.70;99.90
18597;DHT22;9428;50.950;6.912;2024-01-15T01:52:28;1.70;99.90
18597;DHT22;9428;50.950;6.912;2024-01-15T01:55:16;1.70;99.90
18597;DHT22;9428;50.950;6.912;2024-01-15T01:58:04;1.80;99.90
18597;DHT22;9428;50.950;6.912;2024-01-15T02:00:53;1.90;99.90
18597;DHT22;9428;50.950;6.912;2024-01-15T02:03:41;1.80;99.90
18597;DHT22;9428;50.950;6.912;2024-01-15T02:06:28;1.90;99.90
18597;DHT22;9428;50.950;6.912;2024-01-15T02:09:16;1.90;99.90
18597;DHT22;9428;50.950;6.912;2024-01-15T02:12:04;1.90;99.90
18597;DHT22;9428;50.950;6.912;2024-01-15T02:14:51;1.80;99.90
18597;DHT22;9428;50.950;6.912;2024-01-15T02:17:58;1.80;99.90
18597;DHT22;9428;50.950;6.912;2024-01-15T02:20:46;1.80;99.90
18597;DHT22;9428;50.950;6.912;2024-01-15T02:23:35;1.80;99.90
18597;DHT22;9428;50.950;6.912;2024-01-15T02:26:23;1.90;99.90
18597;DHT22;9428;50.950;6.912;2024-01-15T02:29:10;1.80;99.90
18597;DHT22;9428;50.950;6.912;2024-01-15T02:31:58;1.70;99.90
18597;DHT22;9428;50.950;6.912;2024-01-15T02:34:46;1.80;99.90
18597;DHT22;9428;50.950;6.912;2024-01-15T02:37:33;1.80;99.90
18597;DHT22;9428;50.950;6.912;2024-01-15T02:40:22;1.90;99.90
18597;DHT22;9428;50.950;6.912;2024-01-15T02:43:09;2.30;99.90
18597;DHT22;9428;50.950;6.912;2024-01-15T02:45:56;1.90;99.90
18597;DHT22;9428;50.950;6.912;2024-01-15T02:48:44;1.90;99.90
18597;DHT22;9428;50.950;6.912;2024-01-15T02:51:33;1.90;99.90
18597;DHT22;9428;50.950;6.912;2024-01-15T02:54:21;1.90;99.90
18597;DHT22;9428;50.950;6.912;2024-01-15T02:57:10;1.90;99.90
18597;DHT22;9428;50.950;6.912;2024-01-15T02:59:57;1.90;99.90
18597;DHT22;9428;50.950;6.912;2024-01-15T03:02:45;1.90;99.90
18597;DHT22;9428;50.950;6.912;2024-01-15T03:05:32;1.90;99.90
18597;DHT22;9428;50.950;6.912;2024-01-15T03:08:19;2.00;99.90
18597;DHT22;9428;50.950;6.912;2024-01-15T03:11:08;2.50;99.90
18597;DHT22;9428;50.950;6.912;2024-01-15T03:13:57;1.90;99.90
18597;DHT22;9428;50.950;6.912;2024-01-15T03:16:46;1.90;99.90
18597;DHT22;9428;50.950;6.912;2024-01-15T03:19:34;1.90;99.90
18597;DHT22;9428;50.950;6.912;2024-01-15T03:22:22;1.90;99.90
18597;DHT22;9428;50.950;6.912;2024-01-15T03:25:09;1.90;99.90
18597;DHT22;9428;50.950;6.912;2024-01-15T03:27:56;1.90;99.90
18597;DHT22;9428;50.950;6.912;2024-01-15T03:30:45;2.40;99.90
18597;DHT22;9428;50.950;6.912;2024-01-15T03:33:32;1.90;99.90
18597;DHT22;9428;50.950;6.912;2024-01-15T03:36:20;1.90;99.90
18597;DHT22;9428;50.950;6.912;2024-01-15T03:39:07;1.90;99.90
18597;DHT22;9428;50.950;6.912;2024-01-15T03:41:55;2.00;99.90
18597;DHT22;9428;50.950;6.912;2024-01-15T03:44:42;1.90;99.90
18597;DHT22;9428;50.950;6.912;2024-01-15T03:47:31;2.60;99.90
18597;DHT22;9428;50.950;6.912;2024-01-15T03:50:18;1.90;99.90
18597;DHT22;9428;50.950;6.912;2024-01-15T03:53:05;2.10;99.90
18597;DHT22;9428;50.950;6.912;2024-01-15T03:55:53;2.00;99.90
18597;DHT22;9428;50.950;6.912;2024-01-15T03:58:40;2.00;99.90
18597;DHT22;9428;50.950;6.912;2024-01-15T04:01:27;2.00;99.90
18597;DHT22;9428;50.950;6.912;2024-01-15T04:04:17;2.00;99.90
18597;DHT22;9428;50.950;6.912;2024-01-15T04:07:04;2.00;99.90
18597;DHT22;9428;50.950;6.912;2024-01-15T04:09:51;2.60;99.90
18597;DHT22;9428;50.950;6.912;2024-01-15T04:12:39;2.30;99.90
18597;DHT22;9428;50.950;6.912;2024-01-15T04:15:26;2.00;99.90
18597;DHT22;9428;50.950;6.912;2024-01-15T04:18:15;2.10;99.90
18597;DHT22;9428;50.950;6.912;2024-01-15T04:21:06;2.10;99.90
18597;DHT22;9428;50.950;6.912;2024-01-15T04:23:53;2.10;99.90
18597;DHT22;9428;50.950;6.912;2024-01-15T04:26:42;2.10;99.90
18597;DHT22;9428;50.950;6.912;2024-01-15T04:29:32;2.20;99.90
18597;DHT22;9428;50.950;6.912;2024-01-15T04:32:19;2.10;99.90
18597;DHT22;9428;50.950;6.912;2024-01-15T04:35:07;2.10;99.90
18597;DHT22;9428;50.950;6.912;2024-01-15T04:38:03;2.10;99.90
18597;DHT22;9428;50.950;6.912;2024-01-15T04:40:51;2.10;99.90
18597;DHT22;9428;50.950;6.912;2024-01-15T04:43:41;2.20;99.90
18597;DHT22;9428;50.950;6.912;2024-01-15T04:46:28;2.30;99.90
18597;DHT22;9428;50.950;6.912;2024-01-15T04:49:19;2.20;99.90
18597;DHT22;9428;50.950;6.912;2024-01-15T04:52:06;2.20;99.90
18597;DHT22;9428;50.950;6.912;2024-01-15T04:54:57;2.20;99.90
18597;DHT22;9428;50.950;6.912;2024-01-15T04:57:45;2.30;99.90
18597;DHT22;9428;50.950;6.912;2024-01-15T05:00:32;2.30;99.90
18597;DHT22;9428;50.950;6.912;2024-01-15T05:03:19;2.30;99.90
18597;DHT22;9428;50.950;6.912;2024-01-15T05:06:09;3.00;99.90
18597;DHT22;9428;50.950;6.912;2024-01-15T05:08:56;2.60;99.90
18597;DHT22;9428;50.950;6.912;2024-01-15T05:11:45;2.30;99.90
18597;DHT22;9428;50.950;6.912;2024-01-15T05:14:32;2.90;99.90
18597;DHT22;9428;50.950;6.912;2024-01-15T05:17:20;2.20;99.90
18597;DHT22;9428;50.950;6.912;2024-01-15T05:20:08;2.20;99.90
18597;DHT22;9428;50.950;6.912;2024-01-15T05:22:57;2.30;99.90
18597;DHT22;9428;50.950;6.912;2024-01-15T05:25:46;2.30;99.90
18597;DHT22;9428;50.950;6.912;2024-01-15T05:28:37;2.90;99.90
18597;DHT22;9428;50.950;6.912;2024-01-15T05:31:28;2.30;99.90
18597;DHT22;9428;50.950;6.912;2024-01-15T05:34:15;2.30;99.90
18597;DHT22;9428;50.950;6.912;2024-01-15T05:37:03;2.30;99.90
18597;DHT22;9428;50.950;6.912;2024-01-15T05:39:50;2.40;99.90
18597;DHT22;9428;50.950;6.912;2024-01-15T05:42:45;2.30;99.90
18597;DHT22;9428;50.950;6.912;2024-01-15T05:45:34;2.40;99.90
18597;DHT22;9428;50.950;6.912;2024-01-15T05:48:22;2.40;99.90
18597;DHT22;9428;50.950;6.912;2024-01-15T05:51:12;2.30;99.90
18597;DHT22;9428;50.950;6.912;2024-01-15T05:54:00;2.40;99.90
18597;DHT22;9428;50.950;6.912;2024-01-15T05:56:47;2.30;99.90
18597;DHT22;9428;50.950;6.912;2024-01-15T05:59:35;2.30;99.90
18597;DHT22;9428;50.950;6.912;2024-01-15T06:02:26;2.40;99.90
18597;DHT22;9428;50.950;6.912;2024-01-15T06:05:15;2.40;99.90
18597;DHT22;9428;50.950;6.912;2024-01-15T06:08:03;2.40;99.90
18597;DHT22;9428;50.950;6.912;2024-01-15T06:10:50;2.40;99.90
18597;DHT22;9428;50.950;6.912;2024-01-15T06:13:40;2.40;99.90
18597;DHT22;9428;50.950;6.912;2024-01-15T06:16:28;2.40;99.90
18597;DHT22;9428;50.950;6.912;2024-01-15T06:19:17;2.40;99.90
18597;DHT22;9428;50.950;6.912;2024-01-15T06:22:05;2.50;99.90
18597;DHT22;9428;50.950;6.912;2024-01-15T06:24:58;2.40;99.90
18597;DHT22;9428;50.950;6.912;2024-01-15T06:27:45;3.10;99.90
18597;DHT22;9428;50.950;6.912;2024-01-15T06:30:33;2.50;99.90
18597;DHT22;9428;50.950;6.912;2024-01-15T06:33:23;2.50;99.90
18597;DHT22;9428;50.950;6.912;2024-01-15T06:36:13;2.40;99.90
18597;DHT22;9428;50.950;6.912;2024-01-15T06:39:02;2.40;99.90
18597;DHT22;9428;50.950;6.912;2024-01-15T06:41:50;2.40;99.90
18597;DHT22;9428;50.950;6.912;2024-01-15T06:44:37;2.30;99.90
18597;DHT22;9428;50.950;6.912;2024-01-15T06:47:26;2.30;99.90
18597;DHT22;9428;50.950;6.912;2024-01-15T06:50:13;2.40;99.90
18597;DHT22;9428;50.950;6.912;2024-01-15T06:53:02;2.40;99.90
18597;DHT22;9428;50.950;6.912;2024-01-15T06:55:50;2.40;99.90
18597;DHT22;9428;50.950;6.912;2024-01-15T06:58:37;2.30;99.90
18597;DHT22;9428;50.950;6.912;2024-01-15T07:01:25;2.40;99.90
18597;DHT22;9428;50.950;6.912;2024-01-15T07:04:12;2.40;99.90
18597;DHT22;9428;50.950;6.912;2024-01-15T07:06:59;2.40;99.90
18597;DHT22;9428;50.950;6.912;2024-01-15T07:09:48;2.40;99.90
18597;DHT22;9428;50.950;6.912;2024-01-15T07:12:38;2.40;99.90
18597;DHT22;9428;50.950;6.912;2024-01-15T07:15:25;2.40;99.90
18597;DHT22;9428;50.950;6.912;2024-01-15T07:18:13;2.40;99.90
18597;DHT22;9428;50.950;6.912;2024-01-15T07:21:03;2.40;99.90
18597;DHT22;9428;50.950;6.912;2024-01-15T07:23:51;2.40;99.90
18597;DHT22;9428;50.950;6.912;2024-01-15T07:26:39;2.40;99.90
18597;DHT22;9428;50.950;6.912;2024-01-15T07:29:27;2.40;99.90
18597;DHT22;9428;50.950;6.912;2024-01-15T07:32:15;2.40;99.90
18597;DHT22;9428;50.950;6.912;2024-01-15T07:35:05;2.40;99.90
18597;DHT22;9428;50.950;6.912;2024-01-15T07:37:52;2.50;99.90
18597;DHT22;9428;50.950;6.912;2024-01-15T07:40:40;2.40;99.90
18597;DHT22;9428;50.950;6.912;2024-01-15T07:43:29;2.50;99.90
18597;DHT22;9428;50.950;6.912;2024-01-15T07:46:16;2.50;99.90
18597;DHT22;9428;50.950;6.912;2024-01-15T07:49:04;2.50;99.90
18597;DHT22;9428;50.950;6.912;2024-01-15T07:51:51;2.60;99.90
18597;DHT22;9428;50.950;6.912;2024-01-15T07:54:39;2.60;99.90
18597;DHT22;9428;50.950;6.912;2024-01-15T07:57:26;2.70;99.90
18597;DHT22;9428;50.950;6.912;2024-01-15T08:00:17;2.60;99.90
18597;DHT22;9428;50.950;6.912;2024-01-15T08:03:05;2.60;99.90
18597;DHT22;9428;50.950;6.912;2024-01-15T08:05:52;2.60;99.90
18597;DHT22;9428;50.950;6.912;2024-01-15T08:08:40;2.60;99.90
18597;DHT22;9428;50.950;6.912;2024-01-15T08:11:27;2.60;99.90
18597;DHT22;9428;50.950;6.912;2024-01-15T08:14:15;2.60;99.90
18597;DHT22;9428;50.950;6.912;2024-01-15T08:17:05;2.70;99.90
18597;DHT22;9428;50.950;6.912;2024-01-15T08:19:52;2.60;99.90
18597;DHT22;9428;50.950;6.912;2024-01-15T08:22:39;2.70;99.90
18597;DHT22;9428;50.950;6.912;2024-01-15T08:25:27;2.70;99.90
18597;DHT22;9428;50.950;6.912;2024-01-15T08:28:14;2.70;99.90
18597;DHT22;9428;50.950;6.912;2024-01-15T08:31:02;2.60;99.90
18597;DHT22;9428;50.950;6.912;2024-01-15T08:33:51;2.40;99.90
18597;DHT22;9428;50.950;6.912;2024-01-15T08:36:39;3.40;99.90
18597;DHT22;9428;50.950;6.912;2024-01-15T08:39:26;2.60;99.90
18597;DHT22;9428;50.950;6.912;2024-01-15T08:42:14;2.60;99.90
18597;DHT22;9428;50.950;6.912;2024-01-15T08:45:01;2.60;99.90
18597;DHT22;9428;50.950;6.912;2024-01-15T08:47:49;2.60;99.90
18597;DHT22;9428;50.950;6.912;2024-01-15T08:50:37;2.70;99.90
18597;DHT22;9428;50.950;6.912;2024-01-15T08:53:25;2.60;99.90
18597;DHT22;9428;50.950;6.912;2024-01-15T08:56:13;2.00;99.90
18597;DHT22;9428;50.950;6.912;2024-01-15T08:59:00;2.60;99.90
18597;DHT22;9428;50.950;6.912;2024-01-15T09:01:48;2.60;99.90
18597;DHT22;9428;50.950;6.912;2024-01-15T09:04:35;2.60;99.90
18597;DHT22;9428;50.950;6.912;2024-01-15T09:07:24;2.50;99.90
18597;DHT22;9428;50.950;6.912;2024-01-15T09:10:12;2.50;99.90
18597;DHT22;9428;50.950;6.912;2024-01-15T09:13:00;2.50;99.90
18597;DHT22;9428;50.950;6.912;2024-01-15T09:15:49;2.00;99.90
18597;DHT22;9428;50.950;6.912;2024-01-15T09:18:37;2.50;99.90
18597;DHT22;9428;50.950;6.912;2024-01-15T09:21:24;2.50;99.90
18597;DHT22;9428;50.950;6.912;2024-01-15T09:24:13;2.40;99.90
18597;DHT22;9428;50.950;6.912;2024-01-15T09:27:00;2.30;99.90
18597;DHT22;9428;50.950;6.912;2024-01-15T09:29:48;2.40;99.90
18597;DHT22;9428;50.950;6.912;2024-01-15T09:32:36;2.40;99.90
18597;DHT22;9428;50.950;6.912;2024-01-15T09:35:23;2.30;99.90
18597;DHT22;9428;50.950;6.912;2024-01-15T09:38:11;2.30;99.90
18597;DHT22;9428;50.950;6.912;2024-01-15T09:41:00;2.10;99.90
18597;DHT22;9428;50.950;6.912;2024-01-15T09:43:48;2.10;99.90
18597;DHT22;9428;50.950;6.912;2024-01-15T09:46:36;2.10;99.90
18597;DHT22;9428;50.950;6.912;2024-01-15T09:49:24;2.10;99.90
18597;DHT22;9428;50.950;6.912;2024-01-15T09:52:11;2.10;99.90
18597;DHT22;9428;50.950;6.912;2024-01-15T09:55:02;2.10;99.90
18597;DHT22;9428;50.950;6.912;2024-01-15T09:57:52;2.10;99.90
18597;DHT22;9428;50.950;6.912;2024-01-15T10:00:43;2.00;99.90
18597;DHT22;9428;50.950;6.912;2024-01-15T10:03:31;2.00;99.90
18597;DHT22;9428;50.950;6.912;2024-01-15T10:06:18;2.10;99.90
18597;DHT22;9428;50.950;6.912;2024-01-15T10:09:08;2.20;99.90
18597;DHT22;9428;50.950;6.912;2024-01-15T10:11:57;2.10;99.90
18597;DHT22;9428;50.950;6.912;2024-01-15T10:14:46;2.70;99.90
18597;DHT22;9428;50.950;6.912;2024-01-15T10:17:36;2.20;99.90
18597;DHT22;9428;50.950;6.912;2024-01-15T10:20:24;2.30;99.90
18597;DHT22;9428;50.950;6.912;2024-01-15T10:23:12;2.20;99.90
18597;DHT22;9428;50.950;6.912;2024-01-15T10:25:59;2.30;99.90
18597;DHT22;9428;50.950;6.912;2024-01-15T10:28:50;2.00;99.90
18597;DHT22;9428;50.950;6.912;2024-01-15T10:31:40;2.20;99.90
18597;DHT22;9428;50.950;6.912;2024-01-15T10:34:27;2.70;99.90
18597;DHT22;9428;50.950;6.912;2024-01-15T10:37:15;2.20;99.90
18597;DHT22;9428;50.950;6.912;2024-01-15T10:40:02;2.20;99.90
18597;DHT22;9428;50.950;6.912;2024-01-15T10:42:52;2.20;99.90
18597;DHT22;9428;50.950;6.912;2024-01-15T10:45:39;2.30;99.90
18597;DHT22;9428;50.950;6.912;2024-01-15T10:48:28;2.20;99.90
18597;DHT22;9428;50.950;6.912;2024-01-15T10:51:17;2.30;99.90
18597;DHT22;9428;50.950;6.912;2024-01-15T10:54:05;2.10;99.90
18597;DHT22;9428;50.950;6.912;2024-01-15T10:56:53;2.20;99.90
18597;DHT22;9428;50.950;6.912;2024-01-15T10:59:40;2.00;99.90
18597;DHT22;9428;50.950;6.912;2024-01-15T11:02:28;2.00;99.90
18597;DHT22;9428;50.950;6.912;2024-01-15T11:05:18;2.00;99.90
18597;DHT22;9428;50.950;6.912;2024-01-15T11:08:08;2.10;99.90
18597;DHT22;9428;50.950;6.912;2024-01-15T11:10:57;2.60;99.90
18597;DHT22;9428;50.950;6.912;2024-01-15T11:13:47;2.20;99.90
18597;DHT22;9428;50.950;6.912;2024-01-15T11:16:58;2.70;99.90
18597;DHT22;9428;50.950;6.912;2024-01-15T11:19:47;2.50;99.90
18597;DHT22;9428;50.950;6.912;2024-01-15T11:22:49;2.20;99.90
18597;DHT22;9428;50.950;6.912;2024-01-15T11:25:38;2.70;99.90
18597;DHT22;9428;50.950;6.912;2024-01-15T11:28:49;2.40;99.90
18597;DHT22;9428;50.950;6.912;2024-01-15T11:32:02;1.60;99.90
18597;DHT22;9428;50.950;6.912;2024-01-15T11:34:55;2.50;99.90
18597;DHT22;9428;50.950;6.912;2024-01-15T11:37:58;2.40;99.90
18597;DHT22;9428;50.950;6.912;2024-01-15T11:40:45;2.50;99.90
18597;DHT22;9428;50.950;6.912;2024-01-15T11:43:34;2.40;99.90
18597;DHT22;9428;50.950;6.912;2024-01-15T11:46:21;2.30;99.90
18597;DHT22;9428;50.950;6.912;2024-01-15T11:49:12;2.40;99.90
18597;DHT22;9428;50.950;6.912;2024-01-15T11:52:05;2.40;99.90
18597;DHT22;9428;50.950;6.912;2024-01-15T11:55:05;2.50;99.90
18597;DHT22;9428;50.950;6.912;2024-01-15T11:57:54;2.60;99.90
18597;DHT22;9428;50.950;6.912;2024-01-15T12:00:44;3.20;99.90
18597;DHT22;9428;50.950;6.912;2024-01-15T12:03:32;2.40;99.90
18597;DHT22;9428;50.950;6.912;2024-01-15T12:06:20;2.40;99.90
18597;DHT22;9428;50.950;6.912;2024-01-15T12:09:09;2.30;99.90
18597;DHT22;9428;50.950;6.912;2024-01-15T12:12:03;2.30;99.90
18597;DHT22;9428;50.950;6.912;2024-01-15T12:14:54;2.40;99.90
18597;DHT22;9428;50.950;6.912;2024-01-15T12:17:42;2.40;99.90
18597;DHT22;9428;50.950;6.912;2024-01-15T12:20:30;2.90;99.90
18597;DHT22;9428;50.950;6.912;2024-01-15T12:23:17;2.50;99.90
18597;DHT22;9428;50.950;6.912;2024-01-15T12:26:05;2.00;99.90
18597;DHT22;9428;50.950;6.912;2024-01-15T12:28:54;2.70;99.90
18597;DHT22;9428;50.950;6.912;2024-01-15T12:31:42;2.10;99.90
18597;DHT22;9428;50.950;6.912;2024-01-15T12:34:29;2.90;99.90
18597;DHT22;9428;50.950;6.912;2024-01-15T12:37:18;2.90;99.90
18597;DHT22;9428;50.950;6.912;2024-01-15T12:40:07;2.90;99.90
18597;DHT22;9428;50.950;6.912;2024-01-15T12:42:55;2.80;99.90
18597;DHT22;9428;50.950;6.912;2024-01-15T12:45:45;2.90;99.90
18597;DHT22;9428;50.950;6.912;2024-01-15T12:48:33;2.90;99.90
18597;DHT22;9428;50.950;6.912;2024-01-15T12:51:24;2.90;99.90
18597;DHT22;9428;50.950;6.912;2024-01-15T12:54:12;2.80;99.90
18597;DHT22;9428;50.950;6.912;2024-01-15T12:56:59;2.90;99.90
18597;DHT22;9428;50.950;6.912;2024-01-15T12:59:46;3.60;99.90
18597;DHT22;9428;50.950;6.912;2024-01-15T13:02:36;3.30;99.90
18597;DHT22;9428;50.950;6.912;2024-01-15T13:05:23;3.00;99.90
18597;DHT22;9428;50.950;6.912;2024-01-15T13:08:13;3.50;99.90
18597;DHT22;9428;50.950;6.912;2024-01-15T13:11:00;2.50;99.90
18597;DHT22;9428;50.950;6.912;2024-01-15T13:13:48;2.90;99.90
18597;DHT22;9428;50.950;6.912;2024-01-15T13:16:35;3.00;99.90
18597;DHT22;9428;50.950;6.912;2024-01-15T13:19:24;3.00;99.90
18597;DHT22;9428;50.950;6.912;2024-01-15T13:22:11;2.90;99.90
18597;DHT22;9428;50.950;6.912;2024-01-15T13:25:00;3.10;99.90
18597;DHT22;9428;50.950;6.912;2024-01-15T13:27:49;3.00;99.90
18597;DHT22;9428;50.950;6.912;2024-01-15T13:30:37;2.90;99.90
18597;DHT22;9428;50.950;6.912;2024-01-15T13:33:25;2.90;99.90
18597;DHT22;9428;50.950;6.912;2024-01-15T13:36:13;2.90;99.90
18597;DHT22;9428;50.950;6.912;2024-01-15T13:39:01;2.90;99.90
18597;DHT22;9428;50.950;6.912;2024-01-15T13:41:49;2.80;99.90
18597;DHT22;9428;50.950;6.912;2024-01-15T13:44:36;2.80;99.90
18597;DHT22;9428;50.950;6.912;2024-01-15T13:47:24;2.70;99.90
18597;DHT22;9428;50.950;6.912;2024-01-15T13:50:11;2.80;99.90
18597;DHT22;9428;50.950;6.912;2024-01-15T13:53:04;2.70;99.90
18597;DHT22;9428;50.950;6.912;2024-01-15T13:55:52;2.70;99.90
18597;DHT22;9428;50.950;6.912;2024-01-15T13:58:39;2.70;99.90
18597;DHT22;9428;50.950;6.912;2024-01-15T14:01:27;2.70;99.90
18597;DHT22;9428;50.950;6.912;2024-01-15T14:04:14;2.60;99.90
18597;DHT22;9428;50.950;6.912;2024-01-15T14:07:02;2.60;99.90
18597;DHT22;9428;50.950;6.912;2024-01-15T14:09:50;3.20;99.90
18597;DHT22;9428;50.950;6.912;2024-01-15T14:12:38;2.50;99.90
18597;DHT22;9428;50.950;6.912;2024-01-15T14:15:26;2.60;99.90
18597;DHT22;9428;50.950;6.912;2024-01-15T14:18:13;3.30;99.90
18597;DHT22;9428;50.950;6.912;2024-01-15T14:21:01;2.70;99.90
18597;DHT22;9428;50.950;6.912;2024-01-15T14:23:48;2.60;99.90
18597;DHT22;9428;50.950;6.912;2024-01-15T14:26:38;2.70;99.90
18597;DHT22;9428;50.950;6.912;2024-01-15T14:29:25;3.50;99.90
18597;DHT22;9428;50.950;6.912;2024-01-15T14:32:13;2.70;99.90
18597;DHT22;9428;50.950;6.912;2024-01-15T14:35:00;2.80;99.90
18597;DHT22;9428;50.950;6.912;2024-01-15T14:37:49;2.80;99.90
18597;DHT22;9428;50.950;6.912;2024-01-15T14:40:36;2.80;99.90
18597;DHT22;9428;50.950;6.912;2024-01-15T14:43:25;2.70;99.90
18597;DHT22;9428;50.950;6.912;2024-01-15T14:46:15;2.70;99.90
18597;DHT22;9428;50.950;6.912;2024-01-15T14:49:03;2.50;99.90
18597;DHT22;9428;50.950;6.912;2024-01-15T14:51:50;2.50;99.90
18597;DHT22;9428;50.950;6.912;2024-01-15T14:54:38;2.50;99.90
18597;DHT22;9428;50.950;6.912;2024-01-15T14:57:25;2.50;99.90
18597;DHT22;9428;50.950;6.912;2024-01-15T15:00:14;2.50;99.90
18597;DHT22;9428;50.950;6.912;2024-01-15T15:03:03;2.50;99.90
18597;DHT22;9428;50.950;6.912;2024-01-15T15:05:50;2.50;99.90
18597;DHT22;9428;50.950;6.912;2024-01-15T15:08:38;2.50;99.90
18597;DHT22;9428;50.950;6.912;2024-01-15T15:11:26;2.50;99.90
18597;DHT22;9428;50.950;6.912;2024-01-15T15:14:13;3.30;99.90
18597;DHT22;9428;50.950;6.912;2024-01-15T15:17:02;2.70;99.90
18597;DHT22;9428;50.950;6.912;2024-01-15T15:19:49;2.50;99.90
18597;DHT22;9428;50.950;6.912;2024-01-15T15:22:39;2.40;99.90
18597;DHT22;9428;50.950;6.912;2024-01-15T15:25:26;2.50;99.90
18597;DHT22;9428;50.950;6.912;2024-01-15T15:28:15;2.40;99.90
18597;DHT22;9428;50.950;6.912;2024-01-15T15:31:02;2.40;99.90
18597;DHT22;9428;50.950;6.912;2024-01-15T15:33:51;2.40;99.90
18597;DHT22;9428;50.950;6.912;2024-01-15T15:36:38;2.90;99.90
18597;DHT22;9428;50.950;6.912;2024-01-15T15:39:26;2.50;99.90
18597;DHT22;9428;50.950;6.912;2024-01-15T15:42:13;2.40;99.90
18597;DHT22;9428;50.950;6.912;2024-01-15T15:45:01;2.40;99.90
18597;DHT22;9428;50.950;6.912;2024-01-15T15:47:48;2.90;99.90
18597;DHT22;9428;50.950;6.912;2024-01-15T15:50:37;2.40;99.90
18597;DHT22;9428;50.950;6.912;2024-01-15T15:53:24;2.40;99.90
18597;DHT22;9428;50.950;6.912;2024-01-15T15:56:11;2.50;99.90
18597;DHT22;9428;50.950;6.912;2024-01-15T15:58:59;2.30;99.90
18597;DHT22;9428;50.950;6.912;2024-01-15T16:01:48;2.80;99.90
18597;DHT22;9428;50.950;6.912;2024-01-15T16:04:41;2.80;99.90
18597;DHT22;9428;50.950;6.912;2024-01-15T16:07:29;2.30;99.90
18597;DHT22;9428;50.950;6.912;2024-01-15T16:10:17;2.40;99.90
18597;DHT22;9428;50.950;6.912;2024-01-15T16:13:05;2.30;99.90
18597;DHT22;9428;50.950;6.912;2024-01-15T16:15:53;2.20;99.90
18597;DHT22;9428;50.950;6.912;2024-01-15T16:18:40;2.30;99.90
18597;DHT22;9428;50.950;6.912;2024-01-15T16:21:28;2.30;99.90
18597;DHT22;9428;50.950;6.912;2024-01-15T16:24:17;2.30;99.90
18597;DHT22;9428;50.950;6.912;2024-01-15T16:27:05;2.30;99.90
18597;DHT22;9428;50.950;6.912;2024-01-15T16:29:52;2.40;99.90
18597;DHT22;9428;50.950;6.912;2024-01-15T16:32:40;2.30;99.90
18597;DHT22;9428;50.950;6.912;2024-01-15T16:35:27;3.30;99.90
18597;DHT22;9428;50.950;6.912;2024-01-15T16:38:14;2.50;99.90
18597;DHT22;9428;50.950;6.912;2024-01-15T16:41:03;2.30;99.90
18597;DHT22;9428;50.950;6.912;2024-01-15T16:43:51;2.20;99.90
18597;DHT22;9428;50.950;6.912;2024-01-15T16:46:38;2.20;99.90
18597;DHT22;9428;50.950;6.912;2024-01-15T16:49:26;2.70;99.90
18597;DHT22;9428;50.950;6.912;2024-01-15T16:52:13;2.30;99.90
18597;DHT22;9428;50.950;6.912;2024-01-15T16:55:01;2.20;99.90
18597;DHT22;9428;50.950;6.912;2024-01-15T16:57:50;2.60;99.90
18597;DHT22;9428;50.950;6.912;2024-01-15T17:00:37;2.20;99.90
18597;DHT22;9428;50.950;6.912;2024-01-15T17:03:25;2.20;99.90
18597;DHT22;9428;50.950;6.912;2024-01-15T17:06:12;2.30;99.90
18597;DHT22;9428;50.950;6.912;2024-01-15T17:08:59;2.40;99.90
18597;DHT22;9428;50.950;6.912;2024-01-15T17:11:47;2.80;99.90
18597;DHT22;9428;50.950;6.912;2024-01-15T17:14:37;2.30;99.90
18597;DHT22;9428;50.950;6.912;2024-01-15T17:17:25;2.30;99.90
18597;DHT22;9428;50.950;6.912;2024-01-15T17:20:12;2.20;99.90
18597;DHT22;9428;50.950;6.912;2024-01-15T17:23:00;2.20;99.90
18597;DHT22;9428;50.950;6.912;2024-01-15T17:25:47;2.20;99.90
18597;DHT22;9428;50.950;6.912;2024-01-15T17:28:35;2.30;99.90
18597;DHT22;9428;50.950;6.912;2024-01-15T17:31:23;2.20;99.90
18597;DHT22;9428;50.950;6.912;2024-01-15T17:34:11;2.80;99.90
18597;DHT22;9428;50.950;6.912;2024-01-15T17:36:58;2.40;99.90
18597;DHT22;9428;50.950;6.912;2024-01-15T17:39:46;2.10;99.90
18597;DHT22;9428;50.950;6.912;2024-01-15T17:42:33;2.40;99.90
18597;DHT22;9428;50.950;6.912;2024-01-15T17:45:20;2.10;99.90
18597;DHT22;9428;50.950;6.912;2024-01-15T17:48:09;2.10;99.90
18597;DHT22;9428;50.950;6.912;2024-01-15T17:50:57;2.10;99.90
18597;DHT22;9428;50.950;6.912;2024-01-15T17:53:45;2.40;99.90
18597;DHT22;9428;50.950;6.912;2024-01-15T17:56:33;2.10;99.90
18597;DHT22;9428;50.950;6.912;2024-01-15T17:59:20;2.00;99.90
18597;DHT22;9428;50.950;6.912;2024-01-15T18:02:08;2.00;99.90
18597;DHT22;9428;50.950;6.912;2024-01-15T18:04:57;2.00;99.90
18597;DHT22;9428;50.950;6.912;2024-01-15T18:07:44;2.00;99.90
18597;DHT22;9428;50.950;6.912;2024-01-15T18:10:31;2.10;99.90
18597;DHT22;9428;50.950;6.912;2024-01-15T18:13:19;2.00;99.90
18597;DHT22;9428;50.950;6.912;2024-01-15T18:16:09;2.60;99.90
18597;DHT22;9428;50.950;6.912;2024-01-15T18:18:56;2.00;99.90